Time;durP1;ratioP1;P1;durP2;ratioP2;P2;SDS_P1;SDS_P2;PMS_P1;PMS_P2;Temp;Humidity;BMP_temperature;BMP_pressure;BME280_temperature;BME280_humidity;BME280_pressure;Samples;Min_cycle;Max_cycle;Signal;HPM_P1;HPM_P2
2022/09/25 00:01:33;;;;;;;21.13;11.20;;;12.50;99.90;;;;;;5032086;28;20688;-62
2022/09/25 00:04:01;;;;;;;19.87;10.73;;;12.60;99.90;;;;;;5032041;28;20280;-62
2022/09/25 00:06:29;;;;;;;18.80;10.93;;;12.60;99.90;;;;;;5032026;28;20963;-62
2022/09/25 00:08:56;;;;;;;20.03;12.30;;;12.60;99.90;;;;;;5032380;28;20206;-61
2022/09/25 00:11:26;;;;;;;19.53;11.63;;;12.60;99.90;;;;;;5031857;28;20229;-61
2022/09/25 00:13:53;;;;;;;20.07;11.80;;;12.50;99.90;;;;;;5031857;28;20214;-62
2022/09/25 00:16:22;;;;;;;18.50;11.37;;;12.50;99.90;;;;;;5031289;28;20740;-62
2022/09/25 00:21:36;;;;;;;20.50;12.70;;;12.50;99.90;;;;;;5031812;28;20207;-62
2022/09/25 00:24:05;;;;;;;23.77;11.93;;;12.50;99.90;;;;;;5031576;28;20209;-63
2022/09/25 00:26:35;;;;;;;25.63;12.97;;;12.50;99.90;;;;;;5031931;28;20230;-61
2022/09/25 00:29:02;;;;;;;21.83;12.10;;;12.50;99.90;;;;;;5035828;28;20206;-62
2022/09/25 00:31:30;;;;;;;18.17;11.87;;;12.40;99.90;;;;;;5035813;28;20201;-62
2022/09/25 00:33:57;;;;;;;20.77;12.23;;;12.40;99.90;;;;;;5035626;28;20216;-62
2022/09/25 00:36:24;;;;;;;21.93;11.67;;;12.40;99.90;;;;;;5035341;28;20759;-62
2022/09/25 00:38:53;;;;;;;21.83;12.03;;;12.40;99.90;;;;;;5035623;28;20280;-62
2022/09/25 00:41:21;;;;;;;21.53;11.77;;;12.40;99.90;;;;;;5035668;28;20264;-62
2022/09/25 00:43:50;;;;;;;17.63;10.50;;;12.40;99.90;;;;;;5035616;28;20289;-62
2022/09/25 00:46:21;;;;;;;17.77;10.97;;;12.50;99.90;;;;;;5033969;28;20676;-62
2022/09/25 00:48:52;;;;;;;22.37;10.20;;;12.40;99.90;;;;;;5034114;28;20265;-61
2022/09/25 00:51:22;;;;;;;20.53;10.57;;;12.40;99.90;;;;;;5034097;28;20680;-61
2022/09/25 00:53:49;;;;;;;17.80;9.80;;;12.40;99.90;;;;;;5034220;28;20214;-62
2022/09/25 00:56:17;;;;;;;14.57;9.23;;;12.50;99.90;;;;;;5033636;28;20233;-61
2022/09/25 00:58:44;;;;;;;20.90;9.73;;;12.40;99.90;;;;;;5033984;28;20224;-61
2022/09/25 01:01:11;;;;;;;15.03;9.20;;;12.40;99.90;;;;;;5033704;28;20206;-62
2022/09/25 01:03:40;;;;;;;15.10;9.30;;;12.40;99.90;;;;;;5034076;28;20629;-61
2022/09/25 01:06:09;;;;;;;23.03;9.80;;;12.40;99.90;;;;;;5033656;28;20216;-62
2022/09/25 01:08:37;;;;;;;17.03;9.03;;;12.50;99.90;;;;;;5033881;28;20213;-62
2022/09/25 01:11:04;;;;;;;15.57;9.13;;;12.40;99.90;;;;;;5033433;28;20214;-62
2022/09/25 01:13:33;;;;;;;14.70;7.60;;;12.40;99.90;;;;;;5033819;28;20567;-61
2022/09/25 01:16:07;;;;;;;14.47;7.57;;;12.40;99.90;;;;;;5033196;28;20213;-61
2022/09/25 01:18:47;;;;;;;12.33;6.63;;;12.40;99.90;;;;;;5033821;28;20267;-61
2022/09/25 01:21:25;;;;;;;11.90;6.90;;;12.40;99.90;;;;;;5033496;28;20742;-61
2022/09/25 01:24:04;;;;;;;10.77;6.10;;;12.30;99.90;;;;;;5034567;28;20210;-60
2022/09/25 01:26:57;;;;;;;10.13;5.57;;;12.40;99.90;;;;;;5034526;28;20288;-61
2022/09/25 01:29:30;;;;;;;10.27;5.10;;;12.30;99.90;;;;;;5031733;28;20276;-62
2022/09/25 01:32:02;;;;;;;8.80;4.40;;;12.30;99.90;;;;;;5033661;28;20216;-61
2022/09/25 01:34:37;;;;;;;11.63;4.53;;;12.40;99.90;;;;;;5033266;28;20205;-58
2022/09/25 01:37:11;;;;;;;10.10;4.60;;;12.30;99.90;;;;;;5033410;28;20286;-61
2022/09/25 01:39:45;;;;;;;10.50;4.77;;;12.30;99.90;;;;;;5033065;28;20226;-61
2022/09/25 01:42:19;;;;;;;10.00;4.23;;;12.20;99.90;;;;;;5033416;28;20202;-61
2022/09/25 01:44:55;;;;;;;10.70;5.00;;;12.10;99.90;;;;;;4996863;28;1049660;-61
2022/09/25 01:47:26;;;;;;;9.87;4.30;;;12.00;99.90;;;;;;5033995;28;20711;-61
2022/09/25 01:49:56;;;;;;;15.37;5.53;;;12.00;99.90;;;;;;5034403;28;20225;-61
2022/09/25 01:52:27;;;;;;;11.50;4.83;;;12.00;99.90;;;;;;5034319;28;20211;-61
2022/09/25 01:54:59;;;;;;;11.73;4.80;;;11.90;99.90;;;;;;5034077;28;20214;-61
2022/09/25 01:57:31;;;;;;;11.60;4.13;;;11.90;99.90;;;;;;5033847;28;20319;-61
2022/09/25 02:00:04;;;;;;;10.40;4.50;;;12.00;99.90;;;;;;5034135;28;20229;-61
2022/09/25 02:02:35;;;;;;;13.50;5.20;;;12.00;99.90;;;;;;5034363;28;20214;-61
2022/09/25 02:05:07;;;;;;;11.80;4.67;;;12.00;99.90;;;;;;5033906;28;20256;-61
2022/09/25 02:07:37;;;;;;;10.90;4.63;;;12.00;99.90;;;;;;5033729;28;20226;-62
2022/09/25 02:10:09;;;;;;;8.87;4.23;;;12.00;99.90;;;;;;5033878;28;20624;-61
2022/09/25 02:12:43;;;;;;;15.10;4.37;;;12.00;99.90;;;;;;5034149;28;20260;-62
2022/09/25 02:15:16;;;;;;;13.50;4.53;;;12.00;99.90;;;;;;5033916;28;20304;-62
2022/09/25 02:20:36;;;;;;;14.50;3.87;;;12.00;99.90;;;;;;5033683;28;20310;-61
2022/09/25 02:23:10;;;;;;;12.23;3.77;;;12.00;99.90;;;;;;5033972;28;20207;-61
2022/09/25 02:25:40;;;;;;;4.93;3.20;;;11.90;99.90;;;;;;5033703;28;20205;-61
2022/09/25 02:28:07;;;;;;;12.93;3.67;;;11.80;99.90;;;;;;5033422;28;20226;-61
2022/09/25 02:30:35;;;;;;;10.57;4.00;;;11.90;99.90;;;;;;5033463;28;20210;-61
2022/09/25 02:33:02;;;;;;;8.37;3.17;;;11.80;99.90;;;;;;5033442;28;20565;-61
2022/09/25 02:35:28;;;;;;;10.20;3.53;;;11.90;99.90;;;;;;5033576;28;20258;-61
2022/09/25 02:37:56;;;;;;;8.27;3.10;;;11.80;99.90;;;;;;5033093;28;20230;-61
2022/09/25 02:40:33;;;;;;;10.90;3.20;;;11.80;99.90;;;;;;5033223;28;20224;-62
2022/09/25 02:43:10;;;;;;;11.77;3.60;;;11.80;99.90;;;;;;5033513;28;20207;-62
2022/09/25 02:45:45;;;;;;;9.60;3.07;;;11.90;99.90;;;;;;5032711;28;20219;-62
2022/09/25 02:48:19;;;;;;;9.83;3.07;;;11.80;99.90;;;;;;5033258;28;20708;-62
2022/09/25 02:50:51;;;;;;;10.23;2.80;;;11.90;99.90;;;;;;5032354;28;20209;-62
2022/09/25 02:53:25;;;;;;;8.63;2.87;;;11.90;99.90;;;;;;5033172;28;20251;-61
2022/09/25 02:55:56;;;;;;;8.67;2.83;;;11.80;99.90;;;;;;5032866;28;20258;-62
2022/09/25 02:58:27;;;;;;;9.63;2.57;;;11.80;99.90;;;;;;5033168;28;20213;-62
2022/09/25 03:00:57;;;;;;;4.67;2.17;;;11.80;99.90;;;;;;5032704;28;20711;-62
2022/09/25 03:03:26;;;;;;;9.23;2.63;;;11.80;99.90;;;;;;5033071;28;20647;-62
2022/09/25 03:05:56;;;;;;;3.50;2.30;;;11.80;99.90;;;;;;5032636;28;20205;-62
2022/09/25 03:08:40;;;;;;;7.40;2.30;;;11.90;99.90;;;;;;5032593;28;20202;-62
2022/09/25 03:11:09;;;;;;;5.67;2.10;;;11.90;99.90;;;;;;5033153;28;20212;-61
2022/09/25 03:13:36;;;;;;;5.87;2.17;;;11.90;99.90;;;;;;5032884;28;20206;-62
2022/09/25 03:16:08;;;;;;;8.57;2.53;;;11.80;99.90;;;;;;5032464;28;20577;-62
2022/09/25 03:18:34;;;;;;;8.90;2.43;;;11.80;99.90;;;;;;5032675;28;20210;-62
2022/09/25 03:21:03;;;;;;;5.93;1.83;;;11.80;99.90;;;;;;5032330;28;20624;-62
2022/09/25 03:23:30;;;;;;;10.83;2.40;;;11.80;99.90;;;;;;5032656;28;20272;-61
2022/09/25 03:25:56;;;;;;;7.30;2.20;;;11.80;99.90;;;;;;5032109;28;20206;-62
2022/09/25 03:28:23;;;;;;;9.00;2.13;;;11.80;99.90;;;;;;5032650;28;20649;-62
2022/09/25 03:30:58;;;;;;;9.23;2.20;;;11.80;99.90;;;;;;5032586;28;20259;-61
2022/09/25 03:33:28;;;;;;;8.53;2.07;;;11.90;99.90;;;;;;5032221;28;20206;-62
2022/09/25 03:36:03;;;;;;;8.47;2.43;;;11.80;99.90;;;;;;5031952;28;20909;-60
2022/09/25 03:38:29;;;;;;;9.33;2.23;;;11.90;99.90;;;;;;5032197;28;20735;-61
2022/09/25 03:40:56;;;;;;;7.37;1.90;;;11.70;99.90;;;;;;5032196;28;20226;-62
2022/09/25 03:43:23;;;;;;;13.20;2.40;;;11.80;99.90;;;;;;5032248;28;20624;-61
2022/09/25 03:45:49;;;;;;;9.33;2.13;;;11.70;99.90;;;;;;5031936;28;20268;-62
2022/09/25 03:48:16;;;;;;;8.07;2.10;;;11.70;99.90;;;;;;5032004;28;20617;-62
2022/09/25 03:50:45;;;;;;;6.37;2.37;;;11.70;99.90;;;;;;5032284;28;20216;-62
2022/09/25 03:53:11;;;;;;;7.17;1.90;;;11.70;99.90;;;;;;5031978;28;20205;-62
2022/09/25 03:55:38;;;;;;;8.53;2.50;;;11.60;99.90;;;;;;5032185;28;20273;-62
2022/09/25 03:58:04;;;;;;;7.67;2.53;;;11.60;99.90;;;;;;5031603;28;20230;-62
2022/09/25 04:00:31;;;;;;;9.80;2.93;;;11.50;99.90;;;;;;5031683;28;20634;-61
2022/09/25 04:02:58;;;;;;;6.83;2.47;;;11.40;99.90;;;;;;5031756;28;20245;-61
2022/09/25 04:05:25;;;;;;;6.37;2.13;;;11.40;99.90;;;;;;5032116;28;20259;-61
2022/09/25 04:07:52;;;;;;;8.13;1.80;;;11.40;99.90;;;;;;5031747;28;20226;-61
2022/09/25 04:10:19;;;;;;;10.07;2.30;;;11.40;99.90;;;;;;5031960;28;20256;-62
2022/09/25 04:12:46;;;;;;;7.90;2.40;;;11.50;99.90;;;;;;5031880;28;20236;-62
2022/09/25 04:15:14;;;;;;;6.40;2.00;;;11.40;99.90;;;;;;5031718;28;20708;-61
2022/09/25 04:17:40;;;;;;;7.03;2.27;;;11.40;99.90;;;;;;5031724;28;20237;-62
2022/09/25 04:20:08;;;;;;;7.83;2.00;;;11.40;99.90;;;;;;5031605;28;20226;-62
2022/09/25 04:22:35;;;;;;;7.67;2.80;;;11.40;99.90;;;;;;5031745;28;20216;-61
2022/09/25 04:25:03;;;;;;;7.73;2.30;;;11.40;99.90;;;;;;5031796;28;20206;-62
2022/09/25 04:27:29;;;;;;;7.70;2.17;;;11.50;99.90;;;;;;5031251;28;20713;-62
2022/09/25 04:29:56;;;;;;;5.70;2.00;;;11.50;99.90;;;;;;5031790;28;20262;-62
2022/09/25 04:35:07;;;;;;;8.10;2.37;;;11.50;99.90;;;;;;5032207;28;20679;-61
2022/09/25 04:37:34;;;;;;;5.73;2.20;;;11.40;99.90;;;;;;5031823;28;20646;-62
2022/09/25 04:40:02;;;;;;;7.60;1.80;;;11.40;99.90;;;;;;5031398;28;20239;-61
2022/09/25 04:42:29;;;;;;;10.03;2.30;;;11.40;99.90;;;;;;5031916;28;20614;-61
2022/09/25 04:44:57;;;;;;;4.77;2.20;;;11.30;99.90;;;;;;5032032;28;20217;-62
2022/09/25 04:47:25;;;;;;;6.47;3.03;;;11.30;99.90;;;;;;5031774;28;20230;-62
2022/09/25 04:49:52;;;;;;;6.93;2.70;;;11.30;99.90;;;;;;5032246;28;20210;-62
2022/09/25 04:52:20;;;;;;;6.43;2.30;;;11.30;99.90;;;;;;5031991;28;20210;-62
2022/09/25 04:54:47;;;;;;;9.60;1.97;;;11.30;99.90;;;;;;5031711;28;20215;-62
2022/09/25 04:57:16;;;;;;;11.20;2.50;;;11.20;99.90;;;;;;5031345;28;20309;-62
2022/09/25 04:59:43;;;;;;;8.87;2.40;;;11.10;99.90;;;;;;5031588;28;20203;-62
2022/09/25 05:02:10;;;;;;;4.80;2.53;;;11.10;99.90;;;;;;5031485;28;20632;-62
2022/09/25 05:04:37;;;;;;;11.23;3.30;;;11.10;99.90;;;;;;5031532;28;20296;-62
2022/09/25 05:07:03;;;;;;;15.17;9.47;;;11.10;99.90;;;;;;5031210;28;20230;-62
2022/09/25 05:09:30;;;;;;;8.20;6.37;;;11.20;99.90;;;;;;5031584;28;20559;-61
2022/09/25 05:11:57;;;;;;;13.23;5.63;;;11.20;99.90;;;;;;5031326;28;20685;-62
2022/09/25 05:14:25;;;;;;;16.33;5.00;;;11.20;99.90;;;;;;5034636;28;20629;-63
2022/09/25 05:16:52;;;;;;;11.70;4.80;;;11.10;99.90;;;;;;5034668;28;20222;-62
2022/09/25 05:19:18;;;;;;;8.27;3.00;;;11.10;99.90;;;;;;5034834;28;20214;-62
2022/09/25 05:21:45;;;;;;;11.17;3.07;;;11.20;99.90;;;;;;5034616;28;20233;-62
2022/09/25 05:24:12;;;;;;;10.50;2.20;;;11.20;99.90;;;;;;5034892;28;20349;-62
2022/09/25 05:26:39;;;;;;;9.37;3.13;;;11.20;99.90;;;;;;5034500;28;20583;-62
2022/09/25 05:29:06;;;;;;;10.13;2.20;;;11.20;99.90;;;;;;5034761;28;20207;-62
2022/09/25 05:31:35;;;;;;;6.93;2.50;;;11.10;99.90;;;;;;5034643;28;20207;-62
2022/09/25 05:34:02;;;;;;;7.57;2.40;;;11.10;99.90;;;;;;5034501;28;20653;-62
2022/09/25 05:36:28;;;;;;;7.37;2.43;;;11.10;99.90;;;;;;5034205;28;20226;-62
2022/09/25 05:38:56;;;;;;;7.40;2.27;;;11.10;99.90;;;;;;5034414;28;20685;-62
2022/09/25 05:41:23;;;;;;;9.77;2.60;;;11.10;99.90;;;;;;5034543;28;20222;-62
2022/09/25 05:43:50;;;;;;;5.73;2.10;;;11.10;99.90;;;;;;5034472;28;20778;-64
2022/09/25 05:46:16;;;;;;;7.57;2.33;;;11.00;99.90;;;;;;5033881;28;20310;-62
2022/09/25 05:48:44;;;;;;;7.07;2.50;;;11.00;99.90;;;;;;5034282;28;20637;-62
2022/09/25 05:51:11;;;;;;;7.33;2.63;;;11.00;99.90;;;;;;5034589;28;20211;-62
2022/09/25 05:53:38;;;;;;;11.10;2.40;;;11.00;99.90;;;;;;5034340;28;20256;-61
2022/09/25 05:56:05;;;;;;;7.23;2.50;;;10.90;99.90;;;;;;5034067;28;20627;-61
2022/09/25 05:58:34;;;;;;;12.87;2.90;;;10.90;99.90;;;;;;5034029;28;20268;-61
2022/09/25 06:01:02;;;;;;;9.80;2.67;;;10.90;99.90;;;;;;5034056;28;20294;-61
2022/09/25 06:03:29;;;;;;;6.13;2.47;;;10.90;99.90;;;;;;5033905;28;20221;-59
2022/09/25 06:05:57;;;;;;;9.17;2.63;;;10.90;99.90;;;;;;5033934;28;20206;-61
2022/09/25 06:08:25;;;;;;;10.93;2.80;;;10.90;99.90;;;;;;5033776;28;20625;-61
2022/09/25 06:10:53;;;;;;;10.10;2.87;;;10.90;99.90;;;;;;5034042;28;20214;-61
2022/09/25 06:13:20;;;;;;;10.80;2.73;;;10.80;99.90;;;;;;5033907;28;20202;-61
2022/09/25 06:15:49;;;;;;;7.93;2.50;;;10.80;99.90;;;;;;5033824;28;20260;-61
2022/09/25 06:18:16;;;;;;;8.57;2.77;;;10.80;99.90;;;;;;5033636;28;20249;-61
2022/09/25 06:20:42;;;;;;;10.23;2.70;;;10.80;99.90;;;;;;5033905;28;20284;-61
2022/09/25 06:23:10;;;;;;;11.57;2.63;;;10.70;99.90;;;;;;5033686;28;20206;-61
2022/09/25 06:25:37;;;;;;;10.30;3.27;;;10.70;99.90;;;;;;5032541;28;20202;-61
2022/09/25 06:28:04;;;;;;;16.00;3.30;;;10.70;99.90;;;;;;5033348;28;20226;-61
2022/09/25 06:30:34;;;;;;;9.10;2.90;;;10.80;99.90;;;;;;5033471;28;20202;-62
2022/09/25 06:33:03;;;;;;;8.43;3.03;;;10.80;99.90;;;;;;5033822;28;20202;-62
2022/09/25 06:35:29;;;;;;;11.43;3.00;;;10.80;99.90;;;;;;5033609;28;20242;-61
2022/09/25 06:38:00;;;;;;;11.33;3.50;;;10.90;99.90;;;;;;5033276;28;20226;-62
2022/09/25 06:40:30;;;;;;;8.20;3.20;;;10.90;99.90;;;;;;5033262;28;20218;-62
2022/09/25 06:42:57;;;;;;;10.27;2.63;;;11.00;99.90;;;;;;5033319;28;20731;-62
2022/09/25 06:45:25;;;;;;;13.67;3.00;;;10.90;99.90;;;;;;5033097;28;20669;-62
2022/09/25 06:47:53;;;;;;;15.67;2.93;;;10.90;99.90;;;;;;5033067;28;20235;-62
2022/09/25 06:50:19;;;;;;;11.17;2.70;;;10.90;99.90;;;;;;5033301;28;20202;-62
2022/09/25 06:52:46;;;;;;;9.77;2.83;;;11.00;99.90;;;;;;5033291;28;20209;-62
2022/09/25 06:55:13;;;;;;;6.10;2.20;;;11.10;99.90;;;;;;5033062;28;20222;-62
2022/09/25 06:57:41;;;;;;;9.37;3.13;;;11.10;99.90;;;;;;5032698;28;20241;-62
2022/09/25 07:00:09;;;;;;;6.17;2.20;;;11.00;99.90;;;;;;5033117;28;20260;-62
2022/09/25 07:05:19;;;;;;;7.70;2.93;;;11.00;99.90;;;;;;5032923;28;20475;-62
2022/09/25 07:07:47;;;;;;;10.03;2.70;;;11.00;99.90;;;;;;5032510;28;20226;-62
2022/09/25 07:10:14;;;;;;;12.60;2.93;;;11.10;99.90;;;;;;5032623;28;20245;-62
2022/09/25 07:12:42;;;;;;;14.40;2.67;;;11.10;99.90;;;;;;5032942;28;20214;-62
2022/09/25 07:15:10;;;;;;;9.87;3.20;;;11.10;99.90;;;;;;5032829;28;20208;-62
2022/09/25 07:17:37;;;;;;;15.00;3.50;;;11.20;99.90;;;;;;5032465;28;20299;-62
2022/09/25 07:20:04;;;;;;;6.80;2.77;;;11.30;99.90;;;;;;5032790;28;20281;-62
2022/09/25 07:22:31;;;;;;;5.90;2.70;;;11.40;99.90;;;;;;5032646;28;20250;-61
2022/09/25 07:24:58;;;;;;;5.93;2.70;;;11.40;99.90;;;;;;5032795;28;20276;-61
2022/09/25 07:27:25;;;;;;;9.37;2.50;;;11.50;99.90;;;;;;5032443;28;20284;-63
2022/09/25 07:29:53;;;;;;;8.00;2.87;;;11.70;99.90;;;;;;5032391;28;20210;-60
2022/09/25 07:32:19;;;;;;;14.80;2.90;;;11.70;99.90;;;;;;5032388;28;20209;-60
2022/09/25 07:34:49;;;;;;;8.33;2.17;;;11.70;99.90;;;;;;5032193;28;20212;-59
2022/09/25 07:37:15;;;;;;;6.50;2.40;;;11.70;99.90;;;;;;5031475;28;20230;-60
2022/09/25 07:39:42;;;;;;;9.43;3.07;;;11.80;99.90;;;;;;5032277;28;20621;-60
2022/09/25 07:42:09;;;;;;;6.83;2.73;;;11.90;99.90;;;;;;5032316;28;20230;-60
2022/09/25 07:44:36;;;;;;;14.80;3.23;;;12.00;99.90;;;;;;5032099;28;20224;-60
2022/09/25 07:47:05;;;;;;;7.30;2.43;;;12.00;99.90;;;;;;5031689;28;20787;-59
2022/09/25 07:49:32;;;;;;;6.60;2.00;;;12.10;99.90;;;;;;5031790;28;20241;-59
2022/09/25 07:51:59;;;;;;;9.13;1.93;;;12.10;99.90;;;;;;5032969;28;20208;-60
2022/09/25 07:54:25;;;;;;;11.00;2.87;;;12.10;99.90;;;;;;5033511;28;20255;-60
2022/09/25 07:56:53;;;;;;;9.13;2.50;;;12.20;99.90;;;;;;5032780;28;20226;-60
2022/09/25 07:59:19;;;;;;;8.33;1.90;;;12.50;99.90;;;;;;5032053;28;20684;-60
2022/09/25 08:01:46;;;;;;;6.80;2.10;;;12.50;91.00;;;;;;5031835;28;20286;-60
2022/09/25 08:04:14;;;;;;;10.43;1.80;;;12.60;81.40;;;;;;5031892;28;20206;-58
2022/09/25 08:06:40;;;;;;;6.33;2.20;;;12.70;78.40;;;;;;5031865;28;20237;-60
2022/09/25 08:09:07;;;;;;;8.63;1.70;;;12.80;50.90;;;;;;5032119;28;20209;-60
2022/09/25 08:11:34;;;;;;;7.93;2.70;;;12.70;39.00;;;;;;5031805;28;20203;-60
2022/09/25 08:14:01;;;;;;;6.30;1.67;;;12.80;38.70;;;;;;5031916;28;20593;-60
2022/09/25 08:16:28;;;;;;;5.83;1.40;;;12.90;27.10;;;;;;5031474;28;20658;-60
2022/09/25 08:18:55;;;;;;;6.43;1.47;;;13.10;10.30;;;;;;5031955;28;20275;-60
2022/09/25 08:21:23;;;;;;;7.87;1.90;;;13.10;1.00;;;;;;5032451;28;20645;-62
2022/09/25 08:23:51;;;;;;;10.43;1.60;;;13.10;1.00;;;;;;5031956;28;20202;-60
2022/09/25 08:26:19;;;;;;;1.50;1.00;;;13.00;1.00;;;;;;5031412;28;20222;-60
2022/09/25 08:28:46;;;;;;;6.73;1.50;;;12.90;1.00;;;;;;5031820;28;20220;-60
2022/09/25 08:31:14;;;;;;;5.67;1.30;;;12.90;1.00;;;;;;5031490;28;20206;-60
2022/09/25 08:33:44;;;;;;;6.20;1.53;;;12.80;4.30;;;;;;5031706;28;20215;-59
2022/09/25 08:36:10;;;;;;;4.50;1.30;;;12.80;3.10;;;;;;5031566;28;20264;-60
2022/09/25 08:38:39;;;;;;;6.03;1.83;;;12.90;1.00;;;;;;5031801;28;20206;-60
2022/09/25 08:41:10;;;;;;;7.97;2.90;;;12.90;1.00;;;;;;5031475;28;20222;-60
2022/09/25 08:43:44;;;;;;;3.77;1.40;;;13.00;1.00;;;;;;5031608;28;20209;-60
2022/09/25 08:49:05;;;;;;;6.07;1.47;;;13.20;1.00;;;;;;5030693;28;20201;-61
2022/09/25 08:51:37;;;;;;;9.17;1.40;;;13.20;1.00;;;;;;5030723;28;20210;-61
2022/09/25 08:54:06;;;;;;;4.20;1.23;;;13.40;1.00;;;;;;5034381;28;20210;-61
2022/09/25 08:56:35;;;;;;;3.40;1.30;;;13.60;1.00;;;;;;5034862;28;20297;-61
2022/09/25 08:59:08;;;;;;;3.57;1.00;;;13.80;1.00;;;;;;5034765;28;20268;-61
2022/09/25 09:01:43;;;;;;;7.40;1.20;;;14.10;1.00;;;;;;5034379;28;20226;-61
2022/09/25 09:04:18;;;;;;;7.27;1.67;;;14.10;1.00;;;;;;5034751;28;20681;-61
2022/09/25 09:06:49;;;;;;;6.17;1.13;;;14.00;1.00;;;;;;5034386;28;20704;-61
2022/09/25 09:09:21;;;;;;;4.03;1.10;;;13.70;1.00;;;;;;5035053;28;20206;-61
2022/09/25 09:11:51;;;;;;;5.83;1.40;;;13.60;1.00;;;;;;5034340;28;20206;-64
2022/09/25 09:14:21;;;;;;;10.37;1.30;;;13.80;1.00;;;;;;5033542;28;20701;-63
2022/09/25 09:16:54;;;;;;;5.37;1.23;;;13.90;99.90;;;;;;5033615;28;20226;-66
2022/09/25 09:19:21;;;;;;;1.70;0.90;;;14.10;99.90;;;;;;5034528;28;20889;-66
2022/09/25 09:21:54;;;;;;;5.17;1.00;;;14.10;8.90;;;;;;5034149;28;20292;-66
2022/09/25 09:24:31;;;;;;;6.13;1.10;;;14.00;26.80;;;;;;5034209;28;20258;-67
2022/09/25 09:27:18;;;;;;;2.63;1.10;;;13.90;99.90;;;;;;5033734;28;20920;-65
2022/09/25 09:29:59;;;;;;;7.13;1.30;;;13.90;99.90;;;;;;5032231;28;20252;-67
2022/09/25 09:32:50;;;;;;;3.97;0.90;;;13.80;99.90;;;;;;5027335;28;20206;-62
2022/09/25 09:35:25;;;;;;;8.10;1.20;;;13.80;99.90;;;;;;5050324;28;20210;-64
2022/09/25 09:38:01;;;;;;;6.70;1.47;;;14.00;99.90;;;;;;5053438;28;20272;-64
2022/09/25 09:40:45;;;;;;;4.93;1.23;;;14.20;1.00;;;;;;5054074;28;20208;-64
2022/09/25 09:43:31;;;;;;;4.60;1.10;;;14.40;99.90;;;;;;5053795;28;20221;-65
2022/09/25 09:46:05;;;;;;;2.17;0.80;;;14.60;1.00;;;;;;5053393;28;20217;-64
2022/09/25 09:48:38;;;;;;;5.00;0.87;;;14.90;99.90;;;;;;5053460;28;20202;-65
2022/09/25 09:51:11;;;;;;;2.27;1.17;;;14.90;1.00;;;;;;5053929;28;20206;-65
2022/09/25 09:53:44;;;;;;;2.40;0.80;;;14.70;1.00;;;;;;5053789;28;20236;-66
2022/09/25 09:56:15;;;;;;;2.80;0.90;;;14.60;1.00;;;;;;5052981;28;20616;-61
2022/09/25 09:58:49;;;;;;;5.53;1.03;;;14.20;1.00;;;;;;5053013;28;20268;-61
2022/09/25 10:01:19;;;;;;;5.07;1.20;;;14.20;1.00;;;;;;5048772;28;20198;-61
2022/09/25 10:03:49;;;;;;;4.73;1.10;;;14.10;1.00;;;;;;5034529;28;20292;-62
2022/09/25 10:06:17;;;;;;;4.07;1.10;;;14.00;1.00;;;;;;5034300;28;20234;-64
2022/09/25 10:08:44;;;;;;;2.73;0.90;;;14.20;1.00;;;;;;5032953;28;20273;-63
2022/09/25 10:11:16;;;;;;;2.90;0.90;;;14.50;1.00;;;;;;5032877;28;20210;-64
2022/09/25 10:13:44;;;;;;;1.43;0.80;;;14.80;1.00;;;;;;5032703;28;20260;-64
2022/09/25 10:16:14;;;;;;;3.00;0.70;;;14.80;99.90;;;;;;5033076;28;20256;-64
2022/09/25 10:18:45;;;;;;;8.50;0.97;;;14.90;99.90;;;;;;5031027;28;20276;-62
2022/09/25 10:21:15;;;;;;;1.37;0.60;;;15.10;99.90;;;;;;5033075;28;20280;-66
2022/09/25 10:23:48;;;;;;;2.37;0.70;;;15.30;99.90;;;;;;5032549;28;20230;-65
2022/09/25 10:26:28;;;;;;;6.10;1.47;;;15.40;99.90;;;;;;5032941;28;21521;-60
2022/09/25 10:28:56;;;;;;;1.87;0.70;;;15.50;99.90;;;;;;5032881;28;20561;-60
2022/09/25 10:31:24;;;;;;;3.80;1.03;;;15.50;99.90;;;;;;5032866;28;20221;-60
2022/09/25 10:34:03;;;;;;;6.87;1.17;;;15.70;99.90;;;;;;5033179;28;20268;-63
2022/09/25 10:36:37;;;;;;;3.20;0.90;;;15.50;99.90;;;;;;5032223;28;20234;-61
2022/09/25 10:39:06;;;;;;;3.57;1.17;;;15.20;99.90;;;;;;5032755;28;20677;-59
2022/09/25 10:41:43;;;;;;;4.33;0.80;;;15.10;99.90;;;;;;5032307;28;20778;-63
2022/09/25 10:44:30;;;;;;;5.90;1.10;;;15.10;99.90;;;;;;5032515;28;20206;-63
2022/09/25 10:50:19;;;;;;;4.53;1.00;;;14.90;99.90;;;;;;5032647;28;20214;-62
2022/09/25 10:52:49;;;;;;;2.97;0.83;;;15.30;99.90;;;;;;5032805;28;20202;-62
2022/09/25 10:55:24;;;;;;;4.60;0.70;;;15.50;99.90;;;;;;5028729;28;20213;-64
2022/09/25 10:58:02;;;;;;;1.43;0.90;;;15.60;99.90;;;;;;5032427;28;20271;-63
2022/09/25 11:00:29;;;;;;;2.90;0.73;;;15.70;99.90;;;;;;5032378;28;20210;-64
2022/09/25 11:02:59;;;;;;;1.90;0.73;;;15.80;99.90;;;;;;5032386;28;20228;-61
2022/09/25 11:05:29;;;;;;;2.10;0.70;;;15.90;99.90;;;;;;5031909;28;20206;-58
2022/09/25 11:07:58;;;;;;;3.53;0.93;;;15.90;99.90;;;;;;5032555;28;20236;-61
2022/09/25 11:10:27;;;;;;;4.27;0.80;;;15.90;99.90;;;;;;5033740;28;20207;-62
2022/09/25 11:12:57;;;;;;;3.90;0.93;;;16.00;99.90;;;;;;5034989;28;20240;-62
2022/09/25 11:15:26;;;;;;;3.47;1.00;;;16.10;99.90;;;;;;5032747;28;20206;-62
2022/09/25 11:17:55;;;;;;;5.03;0.73;;;16.10;99.90;;;;;;5031699;28;20609;-61
2022/09/25 11:20:28;;;;;;;4.37;0.97;;;16.10;99.90;;;;;;5032424;28;20284;-63
2022/09/25 11:23:04;;;;;;;3.93;0.80;;;16.00;99.90;;;;;;5031857;28;20241;-64
2022/09/25 11:25:39;;;;;;;2.63;0.80;;;15.60;99.90;;;;;;5032064;28;20263;-63
2022/09/25 11:28:14;;;;;;;3.93;1.23;;;15.50;99.90;;;;;;5031595;28;20226;-63
2022/09/25 11:30:48;;;;;;;4.77;0.90;;;15.10;99.90;;;;;;5031911;28;20279;-62
2022/09/25 11:33:23;;;;;;;2.07;0.80;;;15.20;99.90;;;;;;5031812;28;20206;-63
2022/09/25 11:35:55;;;;;;;1.23;0.40;;;15.40;99.90;;;;;;5031620;28;20260;-63
2022/09/25 11:41:21;;;;;;;3.57;0.80;;;16.00;99.90;;;;;;5031777;28;20200;-61
2022/09/25 11:44:13;;;;;;;6.00;0.90;;;16.20;99.90;;;;;;5030562;28;20249;-64
2022/09/25 11:46:49;;;;;;;2.20;0.70;;;16.30;99.90;;;;;;5030997;28;20308;-61
2022/09/25 11:49:21;;;;;;;5.57;1.10;;;16.10;99.90;;;;;;5031250;28;20209;-60
2022/09/25 11:52:17;;;;;;;3.07;0.80;;;15.90;99.90;;;;;;5031820;28;20210;-60
2022/09/25 11:54:57;;;;;;;4.03;0.90;;;15.80;99.90;;;;;;5031412;28;20214;-67
2022/09/25 11:57:31;;;;;;;2.90;0.90;;;15.50;99.90;;;;;;5031413;28;20225;-65
2022/09/25 12:00:08;;;;;;;2.50;1.27;;;15.10;99.90;;;;;;5031411;28;20212;-63
2022/09/25 12:02:49;;;;;;;15.27;3.70;;;15.30;99.90;;;;;;5031572;28;20665;-63
2022/09/25 12:05:32;;;;;;;3.17;0.90;;;15.30;99.90;;;;;;5031209;28;20210;-59
2022/09/25 12:08:16;;;;;;;1.77;0.77;;;15.40;99.90;;;;;;5030787;28;20283;-61
2022/09/25 12:10:54;;;;;;;3.53;0.60;;;15.50;99.90;;;;;;5031500;28;20206;-59
2022/09/25 12:13:27;;;;;;;2.13;1.07;;;15.70;99.90;;;;;;5031363;28;20198;-58
2022/09/25 12:16:07;;;;;;;2.83;0.80;;;15.80;99.90;;;;;;5030642;28;20640;-63
2022/09/25 12:18:50;;;;;;;3.80;0.80;;;15.90;99.90;;;;;;5031509;28;20264;-64
2022/09/25 12:21:20;;;;;;;3.50;0.70;;;16.00;99.90;;;;;;5031474;28;20260;-59
2022/09/25 12:23:53;;;;;;;2.37;0.60;;;16.20;99.90;;;;;;5035323;28;20233;-63
2022/09/25 12:26:29;;;;;;;3.03;0.57;;;16.30;99.90;;;;;;5034852;28;20229;-61
2022/09/25 12:29:11;;;;;;;3.47;0.70;;;16.40;99.90;;;;;;5034914;28;20271;-60
2022/09/25 12:31:52;;;;;;;1.23;0.70;;;16.10;99.90;;;;;;5035418;28;20263;-61
2022/09/25 12:34:36;;;;;;;1.30;0.50;;;16.00;99.90;;;;;;5035484;28;20719;-61
2022/09/25 12:37:14;;;;;;;2.30;0.70;;;16.10;99.90;;;;;;5034642;28;20226;-61
2022/09/25 12:39:44;;;;;;;4.63;1.10;;;16.10;99.90;;;;;;5034935;28;20673;-60
2022/09/25 12:42:16;;;;;;;2.10;0.70;;;16.20;99.90;;;;;;5034601;28;20292;-60
2022/09/25 12:44:49;;;;;;;3.27;0.80;;;16.30;99.90;;;;;;5034772;28;20272;-60
2022/09/25 12:47:24;;;;;;;2.53;0.73;;;15.90;99.90;;;;;;5034492;28;20249;-65
2022/09/25 12:49:57;;;;;;;3.17;0.70;;;15.70;99.90;;;;;;5034917;28;20623;-61
2022/09/25 12:52:29;;;;;;;2.67;0.90;;;15.50;99.90;;;;;;5034976;28;20206;-61
2022/09/25 12:55:02;;;;;;;3.03;0.80;;;15.60;99.90;;;;;;5034606;28;20591;-63
2022/09/25 12:57:32;;;;;;;1.90;0.70;;;15.60;99.90;;;;;;5034048;28;20226;-63
2022/09/25 13:00:03;;;;;;;2.83;0.93;;;15.60;99.90;;;;;;5034500;28;20271;-61
2022/09/25 13:02:38;;;;;;;2.40;0.70;;;15.80;99.90;;;;;;5034099;28;20230;-63
2022/09/25 13:05:11;;;;;;;3.37;0.57;;;15.90;99.90;;;;;;5034576;28;20202;-61
2022/09/25 13:07:43;;;;;;;3.37;1.50;;;16.00;99.90;;;;;;5034195;28;20230;-62
2022/09/25 13:10:23;;;;;;;3.57;1.07;;;16.00;99.90;;;;;;5034582;28;20681;-64
2022/09/25 13:12:54;;;;;;;1.43;0.60;;;16.00;99.90;;;;;;5034450;28;20210;-63
2022/09/25 13:15:23;;;;;;;1.33;0.60;;;16.00;99.90;;;;;;5034404;28;20220;-63
2022/09/25 13:17:52;;;;;;;0.50;0.40;;;16.00;99.90;;;;;;5034159;28;20280;-59
2022/09/25 13:20:50;;;;;;;0.40;0.30;;;16.20;99.90;;;;;;5034983;28;20256;-62